sensor_id;sensor_type;location;lat;lon;timestamp;pressure;altitude;pressure_sealevel;temperature;humidity
21821;BME280;11073;48.586;12.066;2023-06-22T00:20:28;96638.28;;;22.56;63.41
21821;BME280;11073;48.586;12.066;2023-06-22T00:47:37;96602.63;;;22.60;64.00
21821;BME280;11073;48.586;12.066;2023-06-22T00:56:22;96569.81;;;22.58;64.42
21821;BME280;11073;48.586;12.066;2023-06-22T01:00:36;96585.22;;;22.60;64.49
21821;BME280;11073;48.586;12.066;2023-06-22T01:30:27;96561.91;;;22.43;64.90
21821;BME280;11073;48.586;12.066;2023-06-22T01:43:36;96575.47;;;22.17;64.72
21821;BME280;11073;48.586;12.066;2023-06-22T02:27:36;96579.03;;;21.90;65.19
21821;BME280;11073;48.586;12.066;2023-06-22T02:41:11;96576.50;;;21.80;65.79
21821;BME280;11073;48.586;12.066;2023-06-22T03:55:47;96550.69;;;21.48;67.00
21821;BME280;11073;48.586;12.066;2023-06-22T03:59:37;96550.19;;;21.46;67.23
21821;BME280;11073;48.586;12.066;2023-06-22T04:03:55;96547.44;;;21.46;66.78
21821;BME280;11073;48.586;12.066;2023-06-22T04:08:18;96551.50;;;21.49;66.94
21821;BME280;11073;48.586;12.066;2023-06-22T04:16:05;96559.44;;;21.51;67.19
21821;BME280;11073;48.586;12.066;2023-06-22T04:20:10;96560.41;;;21.60;67.16
21821;BME280;11073;48.586;12.066;2023-06-22T04:24:38;96558.06;;;21.67;67.02
21821;BME280;11073;48.586;12.066;2023-06-22T04:31:24;96547.63;;;21.50;67.09
21821;BME280;11073;48.586;12.066;2023-06-22T04:34:03;96565.59;;;21.61;67.26
21821;BME280;11073;48.586;12.066;2023-06-22T04:36:35;96568.53;;;21.65;67.14
21821;BME280;11073;48.586;12.066;2023-06-22T04:39:09;96558.88;;;21.67;67.03
21821;BME280;11073;48.586;12.066;2023-06-22T04:41:38;96561.31;;;21.69;67.03
21821;BME280;11073;48.586;12.066;2023-06-22T04:44:14;96563.97;;;21.74;67.23
21821;BME280;11073;48.586;12.066;2023-06-22T04:46:54;96553.13;;;21.78;67.07
21821;BME280;11073;48.586;12.066;2023-06-22T04:49:28;96562.75;;;21.80;66.71
21821;BME280;11073;48.586;12.066;2023-06-22T04:52:01;96559.34;;;21.83;66.92
21821;BME280;11073;48.586;12.066;2023-06-22T04:54:29;96560.34;;;21.87;66.72
21821;BME280;11073;48.586;12.066;2023-06-22T04:57:00;96564.13;;;21.91;66.71
21821;BME280;11073;48.586;12.066;2023-06-22T04:59:31;96558.00;;;21.94;66.55
21821;BME280;11073;48.586;12.066;2023-06-22T05:02:02;96562.59;;;21.99;66.36
21821;BME280;11073;48.586;12.066;2023-06-22T05:04:32;96574.34;;;22.05;66.80
21821;BME280;11073;48.586;12.066;2023-06-22T05:07:03;96561.38;;;21.91;66.63
21821;BME280;11073;48.586;12.066;2023-06-22T05:09:32;96578.31;;;21.98;67.12
21821;BME280;11073;48.586;12.066;2023-06-22T05:12:02;96573.94;;;21.97;67.31
21821;BME280;11073;48.586;12.066;2023-06-22T05:14:34;96575.16;;;22.05;67.07
21821;BME280;11073;48.586;12.066;2023-06-22T05:17:05;96575.16;;;22.05;67.12
21821;BME280;11073;48.586;12.066;2023-06-22T05:19:42;96578.97;;;22.09;67.17
21821;BME280;11073;48.586;12.066;2023-06-22T05:22:15;96571.50;;;22.10;66.93
21821;BME280;11073;48.586;12.066;2023-06-22T05:24:44;96566.38;;;22.17;66.79
21821;BME280;11073;48.586;12.066;2023-06-22T05:27:12;96580.56;;;22.24;66.81
21821;BME280;11073;48.586;12.066;2023-06-22T05:29:41;96571.03;;;22.30;66.67
21821;BME280;11073;48.586;12.066;2023-06-22T05:32:12;96578.69;;;22.33;66.58
21821;BME280;11073;48.586;12.066;2023-06-22T05:34:40;96576.94;;;22.37;66.30
21821;BME280;11073;48.586;12.066;2023-06-22T05:37:08;96572.94;;;22.43;65.95
21821;BME280;11073;48.586;12.066;2023-06-22T05:39:37;96566.50;;;22.48;65.83
21821;BME280;11073;48.586;12.066;2023-06-22T05:42:07;96569.44;;;22.51;65.25
21821;BME280;11073;48.586;12.066;2023-06-22T05:44:37;96557.59;;;22.51;65.03
21821;BME280;11073;48.586;12.066;2023-06-22T05:47:08;96572.19;;;22.51;65.30
21821;BME280;11073;48.586;12.066;2023-06-22T05:49:38;96562.66;;;22.57;65.25
21821;BME280;11073;48.586;12.066;2023-06-22T05:52:07;96570.50;;;22.64;64.53
21821;BME280;11073;48.586;12.066;2023-06-22T05:54:35;96571.22;;;22.70;64.23
21821;BME280;11073;48.586;12.066;2023-06-22T05:57:06;96570.28;;;22.74;63.93
21821;BME280;11073;48.586;12.066;2023-06-22T05:59:34;96572.41;;;22.77;63.80
21821;BME280;11073;48.586;12.066;2023-06-22T06:02:04;96560.56;;;22.77;63.31
21821;BME280;11073;48.586;12.066;2023-06-22T06:04:33;96562.25;;;22.87;63.14
21821;BME280;11073;48.586;12.066;2023-06-22T06:07:04;96553.06;;;22.91;63.02
21821;BME280;11073;48.586;12.066;2023-06-22T06:09:32;96555.84;;;23.00;62.83
21821;BME280;11073;48.586;12.066;2023-06-22T06:12:01;96547.25;;;23.01;62.79
21821;BME280;11073;48.586;12.066;2023-06-22T06:14:31;96551.19;;;23.09;62.37
21821;BME280;11073;48.586;12.066;2023-06-22T06:17:01;96544.75;;;23.14;62.38
21821;BME280;11073;48.586;12.066;2023-06-22T06:19:30;96538.09;;;23.15;62.00
21821;BME280;11073;48.586;12.066;2023-06-22T06:22:00;96536.94;;;23.16;61.75
21821;BME280;11073;48.586;12.066;2023-06-22T06:24:29;96536.31;;;23.19;61.72
21821;BME280;11073;48.586;12.066;2023-06-22T06:26:58;96530.16;;;23.22;61.54
21821;BME280;11073;48.586;12.066;2023-06-22T06:29:27;96533.72;;;23.22;61.10
21821;BME280;11073;48.586;12.066;2023-06-22T06:31:56;96539.28;;;23.31;60.87
21821;BME280;11073;48.586;12.066;2023-06-22T06:34:25;96550.53;;;23.34;60.63
21821;BME280;11073;48.586;12.066;2023-06-22T06:36:53;96546.19;;;23.42;60.46
21821;BME280;11073;48.586;12.066;2023-06-22T06:39:22;96543.09;;;23.44;60.03
21821;BME280;11073;48.586;12.066;2023-06-22T06:41:52;96542.16;;;23.48;60.18
21821;BME280;11073;48.586;12.066;2023-06-22T06:44:20;96536.78;;;23.52;59.74
21821;BME280;11073;48.586;12.066;2023-06-22T06:46:49;96535.84;;;23.56;59.48
21821;BME280;11073;48.586;12.066;2023-06-22T06:49:19;96525.97;;;23.64;59.50
21821;BME280;11073;48.586;12.066;2023-06-22T06:51:47;96524.38;;;23.72;59.28
21821;BME280;11073;48.586;12.066;2023-06-22T06:54:16;96521.47;;;23.77;59.34
21821;BME280;11073;48.586;12.066;2023-06-22T06:56:48;96520.66;;;23.85;58.78
21821;BME280;11073;48.586;12.066;2023-06-22T06:59:18;96529.94;;;23.89;58.43
21821;BME280;11073;48.586;12.066;2023-06-22T07:01:47;96532.72;;;23.98;58.38
21821;BME280;11073;48.586;12.066;2023-06-22T07:04:16;96530.31;;;24.05;58.17
21821;BME280;11073;48.586;12.066;2023-06-22T07:06:45;96529.81;;;24.11;57.76
21821;BME280;11073;48.586;12.066;2023-06-22T07:09:14;96531.13;;;24.23;57.69
21821;BME280;11073;48.586;12.066;2023-06-22T07:11:43;96512.25;;;24.25;57.45
21821;BME280;11073;48.586;12.066;2023-06-22T07:14:11;96511.47;;;24.33;57.35
21821;BME280;11073;48.586;12.066;2023-06-22T07:16:41;96512.59;;;24.40;57.48
21821;BME280;11073;48.586;12.066;2023-06-22T07:19:11;96492.13;;;24.41;57.13
21821;BME280;11073;48.586;12.066;2023-06-22T07:21:39;96501.06;;;24.56;56.88
21821;BME280;11073;48.586;12.066;2023-06-22T07:24:08;96505.78;;;24.64;56.76
21821;BME280;11073;48.586;12.066;2023-06-22T07:26:37;96506.41;;;24.69;56.60
21821;BME280;11073;48.586;12.066;2023-06-22T07:29:05;96513.91;;;24.78;56.47
21821;BME280;11073;48.586;12.066;2023-06-22T07:31:37;96517.47;;;24.87;56.67
21821;BME280;11073;48.586;12.066;2023-06-22T07:34:09;96517.78;;;24.94;56.22
21821;BME280;11073;48.586;12.066;2023-06-22T07:36:38;96520.84;;;25.01;55.99
21821;BME280;11073;48.586;12.066;2023-06-22T07:39:06;96513.53;;;24.96;55.75
21821;BME280;11073;48.586;12.066;2023-06-22T07:41:34;96516.00;;;25.07;55.74
21821;BME280;11073;48.586;12.066;2023-06-22T07:44:03;96509.75;;;25.18;55.76
21821;BME280;11073;48.586;12.066;2023-06-22T07:46:32;96505.47;;;25.29;55.86
21821;BME280;11073;48.586;12.066;2023-06-22T07:49:01;96498.41;;;25.41;55.71
21821;BME280;11073;48.586;12.066;2023-06-22T07:51:31;96487.50;;;25.44;55.80
21821;BME280;11073;48.586;12.066;2023-06-22T07:54:01;96499.00;;;25.55;55.52
21821;BME280;11073;48.586;12.066;2023-06-22T07:56:29;96494.31;;;25.47;55.30
21821;BME280;11073;48.586;12.066;2023-06-22T07:58:58;96507.81;;;25.57;54.95
21821;BME280;11073;48.586;12.066;2023-06-22T08:01:28;96511.34;;;25.66;54.72
21821;BME280;11073;48.586;12.066;2023-06-22T08:03:57;96499.91;;;25.76;54.83
21821;BME280;11073;48.586;12.066;2023-06-22T08:06:26;96504.09;;;25.82;54.67
21821;BME280;11073;48.586;12.066;2023-06-22T08:08:56;96499.28;;;26.00;54.88
21821;BME280;11073;48.586;12.066;2023-06-22T08:11:26;96492.97;;;26.12;54.80
21821;BME280;11073;48.586;12.066;2023-06-22T08:13:55;96498.72;;;26.28;54.55
21821;BME280;11073;48.586;12.066;2023-06-22T08:16:25;96492.78;;;26.38;54.30
21821;BME280;11073;48.586;12.066;2023-06-22T08:18:54;96491.59;;;26.48;54.25
21821;BME280;11073;48.586;12.066;2023-06-22T08:21:23;96492.31;;;26.57;53.70
21821;BME280;11073;48.586;12.066;2023-06-22T08:23:52;96492.38;;;26.69;53.61
21821;BME280;11073;48.586;12.066;2023-06-22T08:26:23;96488.69;;;26.77;53.15
21821;BME280;11073;48.586;12.066;2023-06-22T08:28:51;96488.03;;;26.92;53.27
21821;BME280;11073;48.586;12.066;2023-06-22T08:31:20;96484.53;;;27.04;52.68
21821;BME280;11073;48.586;12.066;2023-06-22T08:33:48;96481.66;;;27.13;52.17
21821;BME280;11073;48.586;12.066;2023-06-22T08:36:18;96475.63;;;27.23;51.62
21821;BME280;11073;48.586;12.066;2023-06-22T08:38:46;96482.50;;;27.38;51.11
21821;BME280;11073;48.586;12.066;2023-06-22T08:41:18;96482.63;;;27.54;50.67
21821;BME280;11073;48.586;12.066;2023-06-22T08:43:47;96477.56;;;27.68;50.02
21821;BME280;11073;48.586;12.066;2023-06-22T08:46:16;96472.69;;;27.77;49.29
21821;BME280;11073;48.586;12.066;2023-06-22T08:48:49;96471.97;;;27.92;48.44
21821;BME280;11073;48.586;12.066;2023-06-22T08:51:18;96467.78;;;28.11;48.34
21821;BME280;11073;48.586;12.066;2023-06-22T08:53:46;96471.09;;;28.28;47.98
21821;BME280;11073;48.586;12.066;2023-06-22T08:56:15;96471.78;;;28.38;47.89
21821;BME280;11073;48.586;12.066;2023-06-22T08:58:44;96479.38;;;28.53;47.34
21821;BME280;11073;48.586;12.066;2023-06-22T09:01:13;96474.56;;;28.66;46.50
21821;BME280;11073;48.586;12.066;2023-06-22T09:03:43;96477.88;;;28.83;46.26
21821;BME280;11073;48.586;12.066;2023-06-22T09:06:11;96463.56;;;28.97;45.61
21821;BME280;11073;48.586;12.066;2023-06-22T09:08:42;96473.00;;;29.08;45.65
21821;BME280;11073;48.586;12.066;2023-06-22T09:11:11;96462.22;;;29.23;44.68
21821;BME280;11073;48.586;12.066;2023-06-22T09:13:40;96476.44;;;29.49;44.21
21821;BME280;11073;48.586;12.066;2023-06-22T09:16:08;96467.72;;;29.66;44.12
21821;BME280;11073;48.586;12.066;2023-06-22T09:18:39;96468.34;;;29.76;43.28
21821;BME280;11073;48.586;12.066;2023-06-22T09:21:07;96468.03;;;29.97;42.44
21821;BME280;11073;48.586;12.066;2023-06-22T09:23:36;96465.78;;;30.02;42.09
21821;BME280;11073;48.586;12.066;2023-06-22T09:26:05;96455.50;;;30.06;41.80
21821;BME280;11073;48.586;12.066;2023-06-22T09:28:35;96454.22;;;30.19;41.33
21821;BME280;11073;48.586;12.066;2023-06-22T09:31:04;96457.31;;;30.34;40.74
21821;BME280;11073;48.586;12.066;2023-06-22T09:33:34;96451.31;;;30.51;40.37
21821;BME280;11073;48.586;12.066;2023-06-22T09:36:04;96447.19;;;30.64;40.11
21821;BME280;11073;48.586;12.066;2023-06-22T09:38:34;96448.13;;;30.91;40.05
21821;BME280;11073;48.586;12.066;2023-06-22T09:41:03;96442.50;;;31.11;39.49
21821;BME280;11073;48.586;12.066;2023-06-22T09:43:32;96446.22;;;31.18;39.34
21821;BME280;11073;48.586;12.066;2023-06-22T09:46:02;96453.28;;;31.32;38.56
21821;BME280;11073;48.586;12.066;2023-06-22T09:48:30;96458.59;;;31.37;38.88
21821;BME280;11073;48.586;12.066;2023-06-22T09:50:59;96447.69;;;31.32;38.29
21821;BME280;11073;48.586;12.066;2023-06-22T09:53:29;96447.19;;;31.49;38.52
21821;BME280;11073;48.586;12.066;2023-06-22T09:55:57;96443.81;;;31.63;38.09
21821;BME280;11073;48.586;12.066;2023-06-22T09:58:26;96436.34;;;31.70;38.05
21821;BME280;11073;48.586;12.066;2023-06-22T10:00:55;96447.47;;;31.90;37.67
21821;BME280;11073;48.586;12.066;2023-06-22T10:03:24;96439.69;;;32.06;37.59
21821;BME280;11073;48.586;12.066;2023-06-22T10:05:53;96437.63;;;32.29;37.44
21821;BME280;11073;48.586;12.066;2023-06-22T10:08:22;96435.91;;;32.48;37.13
21821;BME280;11073;48.586;12.066;2023-06-22T10:10:51;96442.06;;;32.60;36.76
21821;BME280;11073;48.586;12.066;2023-06-22T10:13:20;96439.19;;;32.87;36.79
21821;BME280;11073;48.586;12.066;2023-06-22T10:15:49;96433.78;;;33.08;36.55
21821;BME280;11073;48.586;12.066;2023-06-22T10:18:19;96431.19;;;33.30;35.94
21821;BME280;11073;48.586;12.066;2023-06-22T10:20:49;96435.25;;;33.36;35.49
21821;BME280;11073;48.586;12.066;2023-06-22T10:23:19;96422.91;;;33.40;35.66
21821;BME280;11073;48.586;12.066;2023-06-22T10:25:48;96413.31;;;33.41;34.98
21821;BME280;11073;48.586;12.066;2023-06-22T10:28:18;96429.91;;;33.64;35.30
21821;BME280;11073;48.586;12.066;2023-06-22T10:30:47;96428.44;;;33.81;35.06
21821;BME280;11073;48.586;12.066;2023-06-22T10:33:16;96431.75;;;33.90;34.40
21821;BME280;11073;48.586;12.066;2023-06-22T10:35:45;96429.47;;;34.14;34.61
21821;BME280;11073;48.586;12.066;2023-06-22T10:38:13;96432.38;;;34.32;34.20
21821;BME280;11073;48.586;12.066;2023-06-22T10:40:42;96414.31;;;34.33;33.89
21821;BME280;11073;48.586;12.066;2023-06-22T10:43:10;96429.25;;;34.44;33.65
21821;BME280;11073;48.586;12.066;2023-06-22T10:45:41;96418.03;;;34.47;33.63
21821;BME280;11073;48.586;12.066;2023-06-22T10:48:10;96418.91;;;34.66;33.80
21821;BME280;11073;48.586;12.066;2023-06-22T10:50:38;96416.81;;;34.45;32.88
21821;BME280;11073;48.586;12.066;2023-06-22T10:53:07;96408.28;;;34.27;33.03
21821;BME280;11073;48.586;12.066;2023-06-22T10:55:36;96418.44;;;34.46;33.08
21821;BME280;11073;48.586;12.066;2023-06-22T10:58:23;96419.34;;;34.71;32.98
21821;BME280;11073;48.586;12.066;2023-06-22T11:00:53;96416.22;;;34.94;32.75
21821;BME280;11073;48.586;12.066;2023-06-22T11:03:23;96406.63;;;35.13;32.45
21821;BME280;11073;48.586;12.066;2023-06-22T11:05:52;96407.00;;;35.33;32.15
21821;BME280;11073;48.586;12.066;2023-06-22T11:08:21;96392.94;;;35.40;31.92
21821;BME280;11073;48.586;12.066;2023-06-22T11:10:51;96403.00;;;35.37;31.37
21821;BME280;11073;48.586;12.066;2023-06-22T11:13:19;96391.75;;;35.23;31.41
21821;BME280;11073;48.586;12.066;2023-06-22T11:15:48;96388.94;;;35.37;31.73
21821;BME280;11073;48.586;12.066;2023-06-22T11:18:18;96387.72;;;35.71;31.68
21821;BME280;11073;48.586;12.066;2023-06-22T11:20:47;96388.53;;;36.03;31.61
21821;BME280;11073;48.586;12.066;2023-06-22T11:23:19;96390.44;;;36.28;31.47
21821;BME280;11073;48.586;12.066;2023-06-22T11:25:48;96384.72;;;36.60;31.03
21821;BME280;11073;48.586;12.066;2023-06-22T11:28:16;96386.22;;;36.79;30.74
21821;BME280;11073;48.586;12.066;2023-06-22T11:30:45;96381.72;;;36.95;30.53
21821;BME280;11073;48.586;12.066;2023-06-22T11:33:14;96375.53;;;37.18;30.44
21821;BME280;11073;48.586;12.066;2023-06-22T11:35:44;96374.47;;;37.50;29.92
21821;BME280;11073;48.586;12.066;2023-06-22T11:38:13;96366.16;;;37.80;29.63
21821;BME280;11073;48.586;12.066;2023-06-22T11:40:41;96362.56;;;38.14;29.81
21821;BME280;11073;48.586;12.066;2023-06-22T11:43:10;96357.44;;;38.02;28.93
21821;BME280;11073;48.586;12.066;2023-06-22T11:45:39;96352.31;;;37.48;28.78
21821;BME280;11073;48.586;12.066;2023-06-22T11:48:08;96352.06;;;37.32;29.65
21821;BME280;11073;48.586;12.066;2023-06-22T11:50:37;96354.97;;;37.14;29.42
21821;BME280;11073;48.586;12.066;2023-06-22T11:53:07;96339.38;;;36.99;29.24
21821;BME280;11073;48.586;12.066;2023-06-22T11:55:35;96342.63;;;36.94;29.30
21821;BME280;11073;48.586;12.066;2023-06-22T11:58:04;96335.59;;;37.23;29.76
21821;BME280;11073;48.586;12.066;2023-06-22T12:00:34;96340.13;;;37.59;29.14
21821;BME280;11073;48.586;12.066;2023-06-22T12:03:17;96340.41;;;38.09;28.95
21821;BME280;11073;48.586;12.066;2023-06-22T12:05:46;96340.41;;;38.47;29.00
21821;BME280;11073;48.586;12.066;2023-06-22T12:08:16;96330.16;;;38.56;28.98
21821;BME280;11073;48.586;12.066;2023-06-22T12:10:45;96331.84;;;38.54;28.21
21821;BME280;11073;48.586;12.066;2023-06-22T12:13:15;96327.06;;;38.13;28.19
21821;BME280;11073;48.586;12.066;2023-06-22T12:15:44;96319.63;;;37.96;28.52
21821;BME280;11073;48.586;12.066;2023-06-22T12:18:13;96318.22;;;38.11;28.76
21821;BME280;11073;48.586;12.066;2023-06-22T12:20:42;96313.53;;;38.31;28.26
21821;BME280;11073;48.586;12.066;2023-06-22T12:23:12;96312.66;;;38.69;28.61
21821;BME280;11073;48.586;12.066;2023-06-22T12:25:44;96314.00;;;38.87;27.96
21821;BME280;11073;48.586;12.066;2023-06-22T12:28:13;96304.72;;;39.10;27.63
21821;BME280;11073;48.586;12.066;2023-06-22T12:30:42;96301.56;;;39.32;27.22
21821;BME280;11073;48.586;12.066;2023-06-22T12:33:11;96303.31;;;39.49;27.10
21821;BME280;11073;48.586;12.066;2023-06-22T12:35:40;96297.78;;;39.65;26.73
21821;BME280;11073;48.586;12.066;2023-06-22T12:38:09;96294.22;;;39.81;26.78
21821;BME280;11073;48.586;12.066;2023-06-22T12:40:38;96283.88;;;39.94;26.75
21821;BME280;11073;48.586;12.066;2023-06-22T12:43:08;96287.88;;;40.17;26.57
21821;BME280;11073;48.586;12.066;2023-06-22T12:45:37;96291.22;;;40.32;26.03
21821;BME280;11073;48.586;12.066;2023-06-22T12:48:06;96279.38;;;40.37;25.89
21821;BME280;11073;48.586;12.066;2023-06-22T12:50:36;96278.19;;;40.54;25.78
21821;BME280;11073;48.586;12.066;2023-06-22T12:53:05;96290.38;;;40.71;25.75
21821;BME280;11073;48.586;12.066;2023-06-22T12:55:34;96289.84;;;40.76;25.46
21821;BME280;11073;48.586;12.066;2023-06-22T12:58:03;96289.69;;;40.83;25.33
21821;BME280;11073;48.586;12.066;2023-06-22T13:00:33;96279.13;;;40.84;25.32
21821;BME280;11073;48.586;12.066;2023-06-22T13:03:02;96280.97;;;40.94;25.24
21821;BME280;11073;48.586;12.066;2023-06-22T13:05:32;96289.34;;;41.14;25.25
21821;BME280;11073;48.586;12.066;2023-06-22T13:08:02;96286.63;;;41.10;24.88
21821;BME280;11073;48.586;12.066;2023-06-22T13:10:31;96274.31;;;41.00;24.79
21821;BME280;11073;48.586;12.066;2023-06-22T13:13:00;96275.00;;;40.88;24.73
21821;BME280;11073;48.586;12.066;2023-06-22T13:15:29;96266.28;;;40.79;25.01
21821;BME280;11073;48.586;12.066;2023-06-22T13:18:01;96258.66;;;40.92;25.14
21821;BME280;11073;48.586;12.066;2023-06-22T13:20:30;96248.84;;;41.13;24.96
21821;BME280;11073;48.586;12.066;2023-06-22T13:22:59;96249.44;;;41.21;24.62
21821;BME280;11073;48.586;12.066;2023-06-22T13:25:28;96237.47;;;41.29;24.29
21821;BME280;11073;48.586;12.066;2023-06-22T13:27:57;96239.09;;;41.30;24.40
21821;BME280;11073;48.586;12.066;2023-06-22T13:30:25;96240.88;;;41.08;24.32
21821;BME280;11073;48.586;12.066;2023-06-22T13:32:54;96240.38;;;40.61;24.53
21821;BME280;11073;48.586;12.066;2023-06-22T13:35:24;96228.53;;;40.10;24.75
21821;BME280;11073;48.586;12.066;2023-06-22T13:37:52;96225.16;;;39.75;24.82
21821;BME280;11073;48.586;12.066;2023-06-22T13:40:21;96220.63;;;39.58;25.34
21821;BME280;11073;48.586;12.066;2023-06-22T13:42:49;96219.38;;;39.39;25.75
21821;BME280;11073;48.586;12.066;2023-06-22T13:45:21;96232.25;;;39.20;25.77
21821;BME280;11073;48.586;12.066;2023-06-22T13:47:50;96224.84;;;39.03;26.23
21821;BME280;11073;48.586;12.066;2023-06-22T13:50:19;96220.91;;;38.97;26.47
21821;BME280;11073;48.586;12.066;2023-06-22T13:52:49;96224.03;;;38.79;26.89
21821;BME280;11073;48.586;12.066;2023-06-22T13:55:17;96218.25;;;38.59;27.25
21821;BME280;11073;48.586;12.066;2023-06-22T13:57:48;96220.34;;;38.55;27.93
21821;BME280;11073;48.586;12.066;2023-06-22T14:00:17;96215.94;;;38.54;27.83
21821;BME280;11073;48.586;12.066;2023-06-22T14:02:46;96206.22;;;38.55;28.13
21821;BME280;11073;48.586;12.066;2023-06-22T14:05:14;96211.97;;;38.48;28.02
21821;BME280;11073;48.586;12.066;2023-06-22T14:07:43;96206.69;;;38.50;27.84
21821;BME280;11073;48.586;12.066;2023-06-22T14:10:13;96203.38;;;38.55;27.69
21821;BME280;11073;48.586;12.066;2023-06-22T14:12:42;96206.91;;;38.62;27.42
21821;BME280;11073;48.586;12.066;2023-06-22T14:15:11;96206.84;;;38.66;27.64
21821;BME280;11073;48.586;12.066;2023-06-22T14:17:39;96196.88;;;38.58;27.37
21821;BME280;11073;48.586;12.066;2023-06-22T14:20:08;96200.00;;;38.91;27.18
21821;BME280;11073;48.586;12.066;2023-06-22T14:22:37;96192.34;;;39.11;27.10
21821;BME280;11073;48.586;12.066;2023-06-22T14:25:07;96201.66;;;39.55;26.53
21821;BME280;11073;48.586;12.066;2023-06-22T14:27:37;96198.66;;;39.85;25.97
21821;BME280;11073;48.586;12.066;2023-06-22T14:30:06;96204.19;;;39.92;25.89
21821;BME280;11073;48.586;12.066;2023-06-22T14:32:35;96191.91;;;39.79;25.87
21821;BME280;11073;48.586;12.066;2023-06-22T14:35:05;96201.56;;;39.82;25.78
21821;BME280;11073;48.586;12.066;2023-06-22T14:37:33;96186.94;;;39.83;25.68
21821;BME280;11073;48.586;12.066;2023-06-22T14:40:02;96185.50;;;39.75;25.57
21821;BME280;11073;48.586;12.066;2023-06-22T14:42:31;96184.63;;;39.98;25.60
21821;BME280;11073;48.586;12.066;2023-06-22T14:45:02;96186.94;;;40.23;25.61
21821;BME280;11073;48.586;12.066;2023-06-22T14:47:30;96189.16;;;40.51;25.37
21821;BME280;11073;48.586;12.066;2023-06-22T14:49:59;96180.28;;;40.66;25.17
21821;BME280;11073;48.586;12.066;2023-06-22T14:52:28;96186.06;;;40.78;24.60
21821;BME280;11073;48.586;12.066;2023-06-22T14:54:57;96177.28;;;40.89;24.60
21821;BME280;11073;48.586;12.066;2023-06-22T14:57:26;96176.84;;;41.07;24.18
21821;BME280;11073;48.586;12.066;2023-06-22T14:59:54;96189.06;;;41.04;24.23
21821;BME280;11073;48.586;12.066;2023-06-22T15:02:24;96176.22;;;41.16;24.05
21821;BME280;11073;48.586;12.066;2023-06-22T15:04:53;96171.25;;;41.03;24.00
21821;BME280;11073;48.586;12.066;2023-06-22T15:07:22;96162.91;;;41.13;24.06
21821;BME280;11073;48.586;12.066;2023-06-22T15:09:51;96160.44;;;41.15;23.74
21821;BME280;11073;48.586;12.066;2023-06-22T15:12:19;96157.78;;;41.08;23.86
21821;BME280;11073;48.586;12.066;2023-06-22T15:14:48;96155.03;;;41.04;24.00
21821;BME280;11073;48.586;12.066;2023-06-22T15:17:18;96151.56;;;40.80;23.61
21821;BME280;11073;48.586;12.066;2023-06-22T15:19:48;96156.53;;;40.76;23.85
21821;BME280;11073;48.586;12.066;2023-06-22T15:22:17;96151.00;;;40.85;24.03
21821;BME280;11073;48.586;12.066;2023-06-22T15:24:46;96146.06;;;41.05;24.20
21821;BME280;11073;48.586;12.066;2023-06-22T15:27:16;96139.66;;;41.18;24.21
21821;BME280;11073;48.586;12.066;2023-06-22T15:29:45;96134.50;;;41.29;24.08
21821;BME280;11073;48.586;12.066;2023-06-22T15:32:13;96130.31;;;41.33;24.06
21821;BME280;11073;48.586;12.066;2023-06-22T15:34:42;96114.72;;;41.25;24.02
21821;BME280;11073;48.586;12.066;2023-06-22T15:37:12;96113.66;;;41.19;23.75
21821;BME280;11073;48.586;12.066;2023-06-22T15:39:41;96109.94;;;41.22;23.88
21821;BME280;11073;48.586;12.066;2023-06-22T15:42:09;96094.38;;;41.27;23.73
21821;BME280;11073;48.586;12.066;2023-06-22T15:44:38;96083.03;;;41.27;23.87
21821;BME280;11073;48.586;12.066;2023-06-22T15:47:08;96080.56;;;41.29;23.91
21821;BME280;11073;48.586;12.066;2023-06-22T15:49:37;96082.16;;;41.30;23.77
21821;BME280;11073;48.586;12.066;2023-06-22T15:52:06;96077.81;;;41.25;23.85
21821;BME280;11073;48.586;12.066;2023-06-22T15:54:35;96069.16;;;41.16;23.76
21821;BME280;11073;48.586;12.066;2023-06-22T15:57:05;96070.41;;;41.15;24.04
21821;BME280;11073;48.586;12.066;2023-06-22T15:59:33;96067.13;;;41.17;24.12
21821;BME280;11073;48.586;12.066;2023-06-22T16:02:03;96054.84;;;41.20;24.09
21821;BME280;11073;48.586;12.066;2023-06-22T16:04:32;96045.25;;;40.85;23.79
21821;BME280;11073;48.586;12.066;2023-06-22T16:07:01;96054.34;;;40.63;23.87
21821;BME280;11073;48.586;12.066;2023-06-22T16:09:29;96054.44;;;40.60;24.04
21821;BME280;11073;48.586;12.066;2023-06-22T16:12:00;96024.41;;;40.62;24.28
21821;BME280;11073;48.586;12.066;2023-06-22T16:14:29;96040.22;;;40.76;24.10
21821;BME280;11073;48.586;12.066;2023-06-22T16:17:15;96038.94;;;40.64;24.13
21821;BME280;11073;48.586;12.066;2023-06-22T16:19:44;96039.75;;;40.48;24.48
21821;BME280;11073;48.586;12.066;2023-06-22T16:22:13;96038.22;;;40.44;24.51
21821;BME280;11073;48.586;12.066;2023-06-22T16:24:42;96029.81;;;40.24;24.41
21821;BME280;11073;48.586;12.066;2023-06-22T16:27:12;96016.00;;;40.10;24.29
21821;BME280;11073;48.586;12.066;2023-06-22T16:29:41;96023.31;;;39.91;24.29
21821;BME280;11073;48.586;12.066;2023-06-22T16:32:11;96014.97;;;39.84;24.91
21821;BME280;11073;48.586;12.066;2023-06-22T16:34:39;96009.06;;;39.94;24.79
21821;BME280;11073;48.586;12.066;2023-06-22T16:37:08;96020.22;;;40.02;24.82
21821;BME280;11073;48.586;12.066;2023-06-22T16:39:37;96016.19;;;40.03;25.13
21821;BME280;11073;48.586;12.066;2023-06-22T16:42:06;96009.50;;;39.93;24.80
21821;BME280;11073;48.586;12.066;2023-06-22T16:44:39;96007.47;;;39.93;25.13
21821;BME280;11073;48.586;12.066;2023-06-22T16:47:09;95994.97;;;39.91;25.32
21821;BME280;11073;48.586;12.066;2023-06-22T16:49:38;95994.72;;;39.85;25.52
21821;BME280;11073;48.586;12.066;2023-06-22T16:52:07;95986.41;;;39.78;25.55
21821;BME280;11073;48.586;12.066;2023-06-22T16:54:36;95971.97;;;39.73;25.66